Flight Track Log - Related Links

Times and Time Zones

All times are in EST time to prevent confusion due to time zone crossing. See the N31KE flight status page for this flight to view local times or setup timezone preferences in your user account.

Time Position Orientation Groundspeed Altitude Reporting Facility
EST Latitude Longitude Course Direction KTS MPH feet Rate Location/Type
Mon 08:27:39 AM 36.4883 -80.2661 334° Northwest 98 113 6,400  Level Atlanta Center
Mon 08:28:39 AM 36.5117 -80.2806 334° Northwest 88 101 6,600 100 Climbing Atlanta Center
Mon 08:29:39 AM 36.5311 -80.3003 321° Northwest 102 117 6,600 -50 Level Atlanta Center
Mon 08:30:39 AM 36.5522 -80.3122 336° Northwest 96 110 6,500 -50 Descending Atlanta Center
Mon 08:31:39 AM 36.5736 -80.3242 336° Northwest 96 110 6,500 50 Level Atlanta Center
Mon 08:32:39 AM 36.5950 -80.3411 328° Northwest 96 110 6,600  Climbing Atlanta Center
Mon 08:33:39 AM 36.6183 -80.3556 334° Northwest 96 110 6,500 -50 Descending Atlanta Center
Mon 08:34:39 AM 36.6439 -80.3753 328° Northwest 96 110 6,500  Level Atlanta Center
Mon 08:35:39 AM 36.6653 -80.3897 332° Northwest 96 110 6,500  Level Atlanta Center
Mon 08:36:39 AM 36.6886 -80.4042 334° Northwest 96 110 6,500  Level Atlanta Center
Mon 08:37:39 AM 36.7097 -80.4189 331° Northwest 96 110 6,500  Level Atlanta Center
Mon 08:38:39 AM 36.7289 -80.4333 329° Northwest 91 105 6,500  Level Atlanta Center
Mon 08:39:39 AM 36.7522 -80.4478 334° Northwest 86 99 6,500  Level Atlanta Center
Mon 08:40:39 AM 36.7694 -80.4600 330° Northwest 86 99 6,500  Level Atlanta Center
Mon 08:41:39 AM 36.7906 -80.4747 331° Northwest 81 93 6,500  Level Atlanta Center
Mon 08:42:39 AM 36.8097 -80.4894 328° Northwest 81 93 6,500  Level Atlanta Center
Mon 08:43:39 AM 36.8333 -80.5039 334° Northwest 81 93 6,500  Level Atlanta Center
Mon 08:44:39 AM 36.8525 -80.5186 328° Northwest 81 93 6,500  Level Atlanta Center
Mon 08:45:39 AM 36.8758 -80.5331 334° Northwest 81 93 6,500  Level Atlanta Center
Mon 08:46:39 AM 36.8969 -80.5478 331° Northwest 81 93 6,500 50 Level Atlanta Center
Mon 08:47:39 AM 36.9183 -80.5625 331° Northwest 81 93 6,600  Climbing Atlanta Center
Mon 08:48:39 AM 36.9417 -80.5794 330° Northwest 81 93 6,500 -50 Descending Atlanta Center
Mon 08:49:39 AM 36.9631 -80.5942 331° Northwest 86 99 6,500  Level Atlanta Center
Mon 08:50:39 AM 36.9822 -80.6089 328° Northwest 86 99 6,500  Level Atlanta Center
Mon 08:51:39 AM 37.0056 -80.6236 333° Northwest 86 99 6,500  Level Atlanta Center
Mon 08:52:39 AM 37.0247 -80.6408 324° Northwest 86 99 6,500 -50 Level Atlanta Center
Mon 08:53:39 AM 37.0522 -80.6553 337° Northwest 86 99 6,400  Descending Atlanta Center
Mon 08:54:39 AM 37.0714 -80.6728 324° Northwest 88 101 6,500 100 Climbing Atlanta Center
Mon 08:55:39 AM 37.0928 -80.6875 331° Northwest 83 96 6,600  Climbing Atlanta Center
Mon 08:56:39 AM 37.1139 -80.7047 327° Northwest 83 96 6,500 -37 Descending Atlanta Center
Mon 08:58:21 AM 37.1536 -80.7281 335° Northwest 91 105 6,500 37 Level Indianapolis Center
Mon 08:59:23 AM 37.1775 -80.7428 334° Northwest 91 105 6,600 48 Climbing Indianapolis Center
Mon 09:00:25 AM 37.1961 -80.7592 325° Northwest 91 105 6,600  Level Indianapolis Center
Mon 09:01:26 AM 37.2197 -80.7731 335° Northwest 91 105 6,600  Level Indianapolis Center
Mon 09:02:28 AM 37.2478 -80.7911 333° Northwest 93 107 6,600 -48 Level Indianapolis Center
Mon 09:03:30 AM 37.2683 -80.8056 331° Northwest 93 107 6,500  Descending Indianapolis Center
Mon 09:04:32 AM 37.2881 -80.8181 333° Northwest 87 100 6,600 49 Climbing Indianapolis Center
Mon 09:05:33 AM 37.3061 -80.8328 327° Northwest 82 94 6,600  Level Indianapolis Center
Mon 09:06:35 AM 37.3347 -80.8519 332° Northwest 91 105 6,600  Level Indianapolis Center
Mon 09:07:37 AM 37.3556 -80.8656 333° Northwest 91 105 6,600  Level Indianapolis Center
Mon 09:08:39 AM 37.3778 -80.8825 329° Northwest 91 105 6,600  Level Indianapolis Center
Mon 09:09:41 AM 37.4022 -80.8981 333° Northwest 96 110 6,600  Level Indianapolis Center
Mon 09:10:43 AM 37.4281 -80.9164 331° Northwest 96 110 6,600  Level Indianapolis Center
Mon 09:11:44 AM 37.4503 -80.9319 331° Northwest 96 110 6,600 -48 Level Indianapolis Center
Mon 09:12:47 AM 37.4728 -80.9486 330° Northwest 95 109 6,500  Descending Indianapolis Center
Mon 09:13:48 AM 37.4981 -80.9664 331° Northwest 95 109 6,600 49 Climbing Indianapolis Center
Mon 09:14:50 AM 37.5181 -80.9797 332° Northwest 89 102 6,600  Level Indianapolis Center
Mon 09:15:52 AM 37.5381 -80.9953 328° Northwest 89 102 6,600  Level Indianapolis Center
Mon 09:16:54 AM 37.5589 -81.0081 334° Northwest 88 101 6,600  Level Indianapolis Center
Mon 09:17:56 AM 37.5844 -81.0275 329° Northwest 88 101 6,600  Level Indianapolis Center
Mon 09:18:58 AM 37.6086 -81.0422 334° Northwest 95 109 6,600  Level Indianapolis Center
Mon 09:19:59 AM 37.6289 -81.0572 330° Northwest 94 108 6,600 -49 Level Indianapolis Center
Mon 09:21:01 AM 37.6500 -81.0719 331° Northwest 93 107 6,500 -97 Descending Indianapolis Center
Mon 09:22:03 AM 37.6750 -81.0911 329° Northwest 89 102 6,400  Descending Indianapolis Center
Mon 09:23:05 AM 37.6953 -81.1050 332° Northwest 89 102 6,500 48 Climbing Indianapolis Center
Mon 09:24:07 AM 37.7161 -81.1194 331° Northwest 88 101 6,500  Level Indianapolis Center
Mon 09:25:09 AM 37.7411 -81.1381 330° Northwest 88 101 6,500  Level Indianapolis Center
Mon 09:26:11 AM 37.7619 -81.1531 330° Northwest 88 101 6,500  Level Indianapolis Center
Mon 09:27:13 AM 37.7839 -81.1683 331° Northwest 88 101 6,500  Level Indianapolis Center
Mon 09:28:15 AM 37.8058 -81.1844 330° Northwest 89 102 6,500 48 Level Indianapolis Center
Mon 09:29:17 AM 37.8294 -81.2011 331° Northwest 90 104 6,600  Climbing Indianapolis Center
Mon 09:30:19 AM 37.8522 -81.2167 332° Northwest 91 105 6,500  Descending Indianapolis Center
Mon 09:31:21 AM 37.8786 -81.2361 330° Northwest 91 105 6,600 48 Climbing Indianapolis Center
Mon 09:32:23 AM 37.9008 -81.2525 330° Northwest 91 105 6,600 -48 Level Indianapolis Center
Mon 09:33:25 AM 37.9233 -81.2686 331° Northwest 91 105 6,500  Descending Indianapolis Center
Mon 09:34:27 AM 37.9456 -81.2842 331° Northwest 91 105 6,600 48 Climbing Indianapolis Center
Mon 09:35:29 AM 37.9669 -81.2989 332° Northwest 91 105 6,600 -48 Level Indianapolis Center
Mon 09:36:31 AM 37.9894 -81.3150 331° Northwest 91 105 6,500 -48 Descending Indianapolis Center
Mon 09:37:33 AM 38.0122 -81.3314 330° Northwest 91 105 6,500 48 Level Indianapolis Center
Mon 09:38:35 AM 38.0386 -81.3500 331° Northwest 91 105 6,600 48 Climbing Indianapolis Center
Mon 09:39:37 AM 38.0617 -81.3658 332° Northwest 92 106 6,600 -48 Level Indianapolis Center
Mon 09:40:39 AM 38.0850 -81.3808 333° Northwest 92 106 6,500 -242 Descending Indianapolis Center
Mon 09:41:41 AM 38.1142 -81.3914 344° North 102 117 6,100 -484 Descending Indianapolis Center
Mon 09:42:43 AM 38.1450 -81.4036 343° North 111 128 5,500 -581 Descending Indianapolis Center
Mon 09:43:45 AM 38.1769 -81.4189 339° North 118 136 4,900 -532 Descending Indianapolis Center
Mon 09:44:47 AM 38.2103 -81.4353 339° North 122 140 4,400 -532 Descending Indianapolis Center
Mon 09:45:49 AM 38.2483 -81.4581 335° Northwest 124 143 3,800 -629 Descending Indianapolis Center
Mon 09:46:51 AM 38.2778 -81.4786 331° Northwest 124 143 3,100 -532 Descending Indianapolis Center
Mon 09:47:53 AM 38.3053 -81.5011 327° Northwest 122 140 2,700 -435 Descending Indianapolis Center
Mon 09:48:55 AM 38.3317 -81.5247 325° Northwest 120 138 2,200 -435 Descending Indianapolis Center
Mon 09:49:57 AM 38.3572 -81.5486 324° Northwest 118 136 1,800 -194 Descending Indianapolis Center
Mon 09:50:59 AM 38.3756 -81.5661 323° Northwest 100 115 1,800 -290 Level Indianapolis Center
Mon 09:52:01 AM 38.3878 -81.5822 314° West 79 91 1,200 -581 Descending Indianapolis Center

Login

Don't have an account? Register now (free) for customized features, flight alerts, and more!